Time;durP1;ratioP1;P1;durP2;ratioP2;P2;SDS_P1;SDS_P2;PMS_P1;PMS_P2;Temp;Humidity;BMP_temperature;BMP_pressure;BME280_temperature;BME280_humidity;BME280_pressure;Samples;Min_cycle;Max_cycle;Signal;HPM_P1;HPM_P2
2023/01/02 00:02:00;;;;;;;1.00;0.50;;;20.70;53.70;;;;;;6126777;29;20048;-45
2023/01/02 00:05:02;;;;;;;0.80;0.43;;;20.50;53.60;;;;;;6127301;29;20024;-50
2023/01/02 00:08:03;;;;;;;;;;;20.70;53.70;;;;;;6125691;29;20044;-49
2023/01/02 00:11:05;;;;;;;1.52;0.70;;;20.60;53.70;;;;;;6126288;29;19926;-51
2023/01/02 00:14:07;;;;;;;1.50;0.60;;;20.80;53.70;;;;;;6124913;29;20051;-49
2023/01/02 00:17:08;;;;;;;1.00;0.52;;;20.70;53.70;;;;;;6123686;29;20052;-50
2023/01/02 00:20:10;;;;;;;;;;;20.70;53.60;;;;;;6123970;29;20063;-49
2023/01/02 00:23:11;;;;;;;0.93;0.60;;;21.10;53.90;;;;;;6123633;29;19924;-51
2023/01/02 00:26:13;;;;;;;0.70;0.50;;;20.80;53.70;;;;;;6125395;29;20048;-51
2023/01/02 00:29:14;;;;;;;0.85;0.60;;;20.80;53.70;;;;;;6127393;29;20103;-51
2023/01/02 00:32:16;;;;;;;1.27;0.60;;;20.60;53.70;;;;;;6127713;29;20045;-50
2023/01/02 00:35:17;;;;;;;;;;;20.60;53.50;;;;;;6127754;29;20056;-50
2023/01/02 00:38:19;;;;;;;1.13;0.52;;;20.80;53.70;;;;;;6128233;29;19930;-50
2023/01/02 00:41:21;;;;;;;1.40;0.57;;;20.80;53.70;;;;;;6128664;29;20055;-49
2023/01/02 00:44:22;;;;;;;1.08;0.60;;;20.60;53.50;;;;;;6129796;29;20045;-49
2023/01/02 00:47:24;;;;;;;1.83;0.80;;;20.70;53.60;;;;;;6129222;29;20040;-51
2023/01/02 00:50:25;;;;;;;;;;;20.80;53.70;;;;;;6129473;29;20041;-51
2023/01/02 00:53:26;;;;;;;2.22;0.90;;;20.30;53.50;;;;;;6121489;29;19923;-49
2023/01/02 00:56:28;;;;;;;1.15;0.65;;;20.60;53.60;;;;;;6122922;29;20064;-49
2023/01/02 00:59:30;;;;;;;1.25;0.65;;;20.60;53.60;;;;;;6129058;28;20048;-48
2023/01/02 01:02:31;;;;;;;;;;;20.60;53.50;;;;;;6129750;29;20052;-49
2023/01/02 01:05:33;;;;;;;;;;;20.60;53.60;;;;;;6105370;29;19923;-51
2023/01/02 01:08:34;;;;;;;1.80;0.70;;;20.70;53.70;;;;;;6128467;29;20431;-51
2023/01/02 01:11:36;;;;;;;1.17;0.70;;;20.70;53.60;;;;;;6129069;29;20048;-51
2023/01/02 01:14:38;;;;;;;1.92;0.60;;;20.30;53.40;;;;;;6127080;29;20044;-51
2023/01/02 01:17:40;;;;;;;1.70;0.73;;;20.70;53.60;;;;;;6126845;29;20048;-49
2023/01/02 01:20:41;;;;;;;2.67;1.00;;;20.70;53.60;;;;;;6125731;29;20060;-51
2023/01/02 01:23:43;;;;;;;2.55;0.82;;;20.50;53.60;;;;;;6125483;29;20071;-50
2023/01/02 01:26:45;;;;;;;1.80;0.75;;;20.80;53.70;;;;;;6107829;29;20031;-49
2023/01/02 01:29:47;;;;;;;2.97;1.33;;;20.60;53.70;;;;;;6125155;29;20047;-51
2023/01/02 01:32:48;;;;;;;3.35;1.42;;;20.70;53.80;;;;;;6123676;29;20103;-49
2023/01/02 01:35:50;;;;;;;;;;;20.70;53.90;;;;;;6129428;23;20048;-51
2023/01/02 01:38:51;;;;;;;;;;;20.70;53.80;;;;;;6122646;29;19931;-47
2023/01/02 01:41:53;;;;;;;2.80;1.20;;;20.50;53.90;;;;;;6120371;29;19974;-50
2023/01/02 01:44:56;;;;;;;2.05;1.02;;;20.70;53.90;;;;;;6120663;29;20063;-50
2023/01/02 01:47:59;;;;;;;;;;;20.60;53.80;;;;;;6119532;29;20055;-49
2023/01/02 01:51:01;;;;;;;2.63;1.00;;;20.70;53.90;;;;;;6117118;29;19927;-47
2023/01/02 01:54:08;;;;;;;2.25;0.88;;;20.80;53.90;;;;;;6116462;29;20040;-52
2023/01/02 01:57:13;;;;;;;1.60;0.90;;;20.50;53.60;;;;;;6117911;29;20116;-48
2023/01/02 02:00:15;;;;;;;1.40;0.80;;;20.50;53.60;;;;;;6115031;29;20127;-50
2023/01/02 02:03:21;;;;;;;2.97;1.23;;;20.60;53.60;;;;;;6116009;29;20044;-51
2023/01/02 02:06:22;;;;;;;1.83;0.98;;;20.70;53.60;;;;;;6113692;29;20050;-50
2023/01/02 02:09:30;;;;;;;1.70;0.70;;;20.30;53.40;;;;;;6113022;29;20047;-50
2023/01/02 02:12:33;;;;;;;1.77;0.90;;;20.60;53.50;;;;;;6093081;29;20051;-47
2023/01/02 02:15:44;;;;;;;1.65;0.77;;;20.70;53.50;;;;;;6113744;29;20050;-49
2023/01/02 02:19:07;;;;;;;1.40;0.63;;;20.50;53.40;;;;;;6111976;29;20408;-48
2023/01/02 02:22:26;;;;;;;1.85;0.73;;;20.60;53.40;;;;;;6111789;29;20417;-49
2023/01/02 02:25:42;;;;;;;1.00;0.70;;;20.70;53.40;;;;;;6114370;29;20048;-48
2023/01/02 02:29:03;;;;;;;1.20;0.68;;;20.70;53.30;;;;;;6098647;29;20520;-49
2023/01/02 02:32:13;;;;;;;1.67;0.85;;;20.70;53.30;;;;;;6111978;29;20442;-47
2023/01/02 02:35:25;;;;;;;1.67;0.80;;;20.70;53.80;;;;;;6119523;23;20044;-50
2023/01/02 02:38:44;;;;;;;1.17;0.55;;;20.60;53.10;;;;;;6098395;29;20079;-51
2023/01/02 02:41:54;;;;;;;1.83;0.65;;;20.80;53.20;;;;;;6114772;29;20044;-50
2023/01/02 02:45:03;;;;;;;1.55;0.73;;;20.60;53.10;;;;;;6097981;29;20052;-50
2023/01/02 02:48:15;;;;;;;1.15;0.65;;;20.60;53.10;;;;;;6114807;29;20184;-48
2023/01/02 02:51:25;;;;;;;1.15;0.60;;;20.60;53.00;;;;;;6116386;29;20048;-50
2023/01/02 02:54:32;;;;;;;1.08;0.60;;;20.70;53.00;;;;;;6113869;29;20051;-50
2023/01/02 02:57:35;;;;;;;1.15;0.60;;;20.80;53.10;;;;;;6114754;29;20055;-46
2023/01/02 03:00:37;;;;;;;1.88;0.60;;;20.60;53.00;;;;;;6114948;29;20126;-51
2023/01/02 03:03:39;;;;;;;1.13;0.50;;;20.90;53.10;;;;;;6118279;29;20044;-51
2023/01/02 03:06:57;;;;;;;0.80;0.50;;;20.70;52.90;;;;;;6121270;29;20048;-49
2023/01/02 03:10:11;;;;;;;1.13;0.63;;;20.60;52.80;;;;;;6118130;29;20044;-48
2023/01/02 03:13:18;;;;;;;0.95;0.52;;;20.70;52.90;;;;;;6119485;29;20084;-51
2023/01/02 03:16:27;;;;;;;1.08;0.65;;;20.70;52.90;;;;;;6102869;29;20080;-47
2023/01/02 03:19:37;;;;;;;1.58;0.50;;;20.60;52.80;;;;;;6120044;29;20051;-50
2023/01/02 03:22:42;;;;;;;0.80;0.40;;;20.70;52.80;;;;;;6104517;29;20048;-47
2023/01/02 03:25:45;;;;;;;1.02;0.38;;;20.60;52.70;;;;;;6121898;29;20116;-52
2023/01/02 03:28:51;;;;;;;0.50;0.38;;;20.60;52.70;;;;;;6122063;29;20044;-48
2023/01/02 03:31:55;;;;;;;1.75;0.50;;;20.70;52.70;;;;;;6121508;29;20059;-50
2023/01/02 03:34:59;;;;;;;0.93;0.30;;;20.60;52.50;;;;;;6111963;23;20111;-46
2023/01/02 03:38:04;;;;;;;1.17;0.50;;;20.60;52.50;;;;;;6121081;29;20501;-48
2023/01/02 03:41:09;;;;;;;0.68;0.30;;;20.70;52.50;;;;;;6120943;29;20040;-50
2023/01/02 03:44:12;;;;;;;0.75;0.32;;;20.60;52.40;;;;;;6121354;29;20064;-50
2023/01/02 03:47:23;;;;;;;0.88;0.52;;;20.80;52.50;;;;;;6120143;29;20052;-49
2023/01/02 03:50:31;;;;;;;1.13;0.40;;;20.60;52.30;;;;;;6122005;29;20044;-50
2023/01/02 03:53:35;;;;;;;0.50;0.17;;;20.70;52.30;;;;;;6106641;29;20040;-49
2023/01/02 03:56:44;;;;;;;0.70;0.22;;;20.50;52.20;;;;;;6106249;29;20032;-50
2023/01/02 03:59:51;;;;;;;0.47;0.30;;;20.50;52.10;;;;;;6122952;29;20051;-51
2023/01/02 04:02:58;;;;;;;0.40;0.28;;;20.60;52.20;;;;;;6124639;29;20040;-49
2023/01/02 04:06:04;;;;;;;0.52;0.30;;;20.60;52.10;;;;;;6124492;29;20052;-49
2023/01/02 04:09:10;;;;;;;0.63;0.35;;;20.50;52.00;;;;;;6104786;29;20048;-50
2023/01/02 04:12:16;;;;;;;0.88;0.30;;;20.60;52.00;;;;;;6114458;29;20096;-47
2023/01/02 04:15:21;;;;;;;1.20;0.30;;;20.60;52.00;;;;;;6108144;29;20044;-50
2023/01/02 04:18:25;;;;;;;0.82;0.30;;;20.60;52.00;;;;;;6106954;29;20063;-48
2023/01/02 04:21:32;;;;;;;0.40;0.20;;;20.60;51.90;;;;;;6113118;29;20052;-49
2023/01/02 04:24:38;;;;;;;0.35;0.30;;;20.70;51.90;;;;;;6113634;29;20040;-49
2023/01/02 04:27:45;;;;;;;0.38;0.30;;;20.70;51.90;;;;;;6124579;29;20044;-50
2023/01/02 04:30:51;;;;;;;0.60;0.28;;;20.60;51.80;;;;;;6124483;29;20040;-46
2023/01/02 04:33:57;;;;;;;0.50;0.30;;;20.90;51.90;;;;;;6123471;29;20091;-50
2023/01/02 04:36:59;;;;;;;0.43;0.35;;;20.80;51.90;;;;;;6122958;29;20099;-48
2023/01/02 04:40:05;;;;;;;0.20;0.15;;;20.30;51.60;;;;;;6121046;29;20052;-50
2023/01/02 04:43:11;;;;;;;0.30;0.20;;;20.60;51.70;;;;;;6119729;29;20044;-47
2023/01/02 04:46:12;;;;;;;0.55;0.28;;;20.70;51.70;;;;;;6102630;29;20048;-46
2023/01/02 04:49:14;;;;;;;0.30;0.30;;;20.80;51.80;;;;;;6126450;29;20055;-49
2023/01/02 04:52:16;;;;;;;;;;;20.60;51.70;;;;;;6134072;28;20137;-51
2023/01/02 04:55:17;;;;;;;0.57;0.30;;;20.50;51.70;;;;;;6132995;29;19923;-49
2023/01/02 04:58:19;;;;;;;0.70;0.30;;;20.70;51.80;;;;;;6134762;28;20040;-49
2023/01/02 05:01:21;;;;;;;0.47;0.17;;;20.60;51.70;;;;;;6134556;28;20076;-50
2023/01/02 05:04:22;;;;;;;0.75;0.32;;;20.60;51.70;;;;;;6118066;29;20052;-50
2023/01/02 05:07:25;;;;;;;0.60;0.30;;;20.40;51.60;;;;;;6133977;29;20079;-47
2023/01/02 05:10:26;;;;;;;0.63;0.50;;;20.70;51.70;;;;;;6134326;29;20446;-50
2023/01/02 05:13:27;;;;;;;;;;;20.50;51.60;;;;;;6134401;29;20039;-50
2023/01/02 05:16:29;;;;;;;0.90;0.43;;;20.70;51.80;;;;;;6133696;28;19907;-51
2023/01/02 05:19:30;;;;;;;1.38;0.60;;;20.50;51.70;;;;;;6133832;28;20047;-48
2023/01/02 05:25:48;;;;;;;1.50;0.55;;;20.50;51.70;;;;;;6133367;28;19931;-48
2023/01/02 05:28:51;;;;;;;;;;;20.50;51.70;;;;;;6133781;29;20059;-51
2023/01/02 05:31:52;;;;;;;1.75;1.10;;;20.60;51.80;;;;;;6117405;29;19923;-49
2023/01/02 05:34:54;;;;;;;2.03;0.82;;;20.50;51.60;;;;;;6133984;29;20084;-51
2023/01/02 05:41:27;;;;;;;2.33;0.90;;;20.50;51.50;;;;;;7150893;23;20048;-50
2023/01/02 05:44:29;;;;;;;3.15;1.00;;;20.30;51.50;;;;;;6383745;23;20040;-48
2023/01/02 05:47:30;;;;;;;1.58;0.82;;;20.60;51.60;;;;;;6134042;29;20040;-50
2023/01/02 05:54:02;;;;;;;1.77;1.00;;;20.40;51.20;;;;;;7175430;23;20048;-49
2023/01/02 05:57:05;;;;;;;1.52;0.73;;;20.60;51.50;;;;;;6132909;28;20032;-50
2023/01/02 06:00:07;;;;;;;1.38;0.85;;;20.60;51.40;;;;;;6116734;29;20020;-50
2023/01/02 06:03:13;;;;;;;0.50;0.40;;;20.50;51.30;;;;;;6132323;29;20056;-50
2023/01/02 06:06:15;;;;;;;;;;;20.70;51.40;;;;;;6132578;29;20046;-50
2023/01/02 06:09:17;;;;;;;0.50;0.20;;;20.20;51.20;;;;;;6116084;29;19970;-50
2023/01/02 06:12:19;;;;;;;0.47;0.38;;;20.60;51.40;;;;;;6133446;29;20032;-47
2023/01/02 06:15:20;;;;;;;0.55;0.38;;;20.60;51.30;;;;;;6136905;29;20057;-50
2023/01/02 06:18:22;;;;;;;0.75;0.30;;;20.60;51.30;;;;;;6136647;29;20074;-49
2023/01/02 06:21:23;;;;;;;0.85;0.38;;;20.60;51.30;;;;;;6120423;29;20044;-51
2023/01/02 06:24:26;;;;;;;0.40;0.28;;;20.40;51.20;;;;;;6136605;28;20047;-49
2023/01/02 06:27:31;;;;;;;0.30;0.30;;;20.40;51.10;;;;;;6136840;28;20055;-51
2023/01/02 06:30:33;;;;;;;0.38;0.30;;;20.70;51.20;;;;;;6120770;28;20055;-51
2023/01/02 06:33:35;;;;;;;0.35;0.30;;;20.50;51.10;;;;;;6120356;29;20076;-48
2023/01/02 06:36:36;;;;;;;0.20;0.20;;;20.70;51.20;;;;;;6113192;29;20063;-51
2023/01/02 06:39:38;;;;;;;0.22;0.20;;;20.50;51.10;;;;;;6112770;29;20049;-50
2023/01/02 06:42:43;;;;;;;0.30;0.30;;;20.50;51.10;;;;;;6112571;29;20159;-50
2023/01/02 06:45:44;;;;;;;0.40;0.40;;;20.50;51.10;;;;;;6112903;29;20100;-49
2023/01/02 06:48:46;;;;;;;0.30;0.20;;;20.50;51.10;;;;;;6107300;29;20056;-51
2023/01/02 06:51:48;;;;;;;0.30;0.30;;;20.60;51.00;;;;;;6109843;29;20062;-51
2023/01/02 06:54:49;;;;;;;0.25;0.17;;;20.60;51.00;;;;;;6110684;29;20051;-49
2023/01/02 06:57:51;;;;;;;;;;;20.70;51.10;;;;;;6106936;29;20055;-50
2023/01/02 07:00:52;;;;;;;;;;;20.50;51.10;;;;;;6104372;29;19924;-50
2023/01/02 07:03:54;;;;;;;0.20;0.20;;;20.60;51.20;;;;;;6107635;29;19923;-50
2023/01/02 07:06:56;;;;;;;0.40;0.20;;;20.50;51.00;;;;;;6109013;29;20041;-48
2023/01/02 07:09:57;;;;;;;0.22;0.22;;;20.60;51.10;;;;;;6108692;29;20052;-46
2023/01/02 07:12:59;;;;;;;;;;;20.50;50.90;;;;;;6107731;29;20055;-49
2023/01/02 07:16:01;;;;;;;;;;;20.40;51.00;;;;;;6105516;29;19931;-51
2023/01/02 07:19:03;;;;;;;0.52;0.50;;;20.50;51.10;;;;;;6108771;29;19907;-50
2023/01/02 07:22:04;;;;;;;;;;;20.50;51.00;;;;;;6109808;29;20052;-49
2023/01/02 07:25:06;;;;;;;0.40;0.38;;;20.50;51.10;;;;;;6102222;29;19923;-49
2023/01/02 07:28:08;;;;;;;0.30;0.30;;;20.40;50.90;;;;;;6100586;29;20524;-51
2023/01/02 07:31:12;;;;;;;0.38;0.35;;;20.40;50.90;;;;;;6103249;29;20041;-48
2023/01/02 07:34:15;;;;;;;0.45;0.30;;;20.40;50.70;;;;;;6093669;29;20020;-49
2023/01/02 07:37:17;;;;;;;0.32;0.20;;;20.50;50.80;;;;;;6107605;29;20116;-47
2023/01/02 07:40:18;;;;;;;;;;;20.60;50.80;;;;;;6090393;29;20041;-50
2023/01/02 07:43:20;;;;;;;0.55;0.52;;;20.30;50.70;;;;;;6106785;29;19923;-51
2023/01/02 07:46:22;;;;;;;0.52;0.30;;;20.50;50.70;;;;;;6091281;29;20044;-50
2023/01/02 07:49:24;;;;;;;1.05;0.47;;;20.40;50.60;;;;;;6091041;29;20053;-50
2023/01/02 07:52:25;;;;;;;;;;;20.50;50.60;;;;;;6109005;29;20044;-49
2023/01/02 07:55:27;;;;;;;0.80;0.40;;;20.60;50.70;;;;;;6100736;29;19935;-50
2023/01/02 08:01:47;;;;;;;1.67;0.30;;;20.40;50.40;;;;;;6083700;29;19983;-49
2023/01/02 08:04:49;;;;;;;0.40;0.30;;;20.50;50.60;;;;;;6074909;29;20068;-46
2023/01/02 08:07:50;;;;;;;;;;;20.50;50.80;;;;;;6126611;23;20059;-52
2023/01/02 08:10:51;;;;;;;0.70;0.30;;;20.40;51.00;;;;;;6114691;29;20291;-53
2023/01/02 08:13:54;;;;;;;0.73;0.50;;;20.70;51.00;;;;;;6105808;29;20056;-54
2023/01/02 08:16:56;;;;;;;1.13;0.28;;;20.60;50.90;;;;;;6105593;29;20048;-54
2023/01/02 08:19:57;;;;;;;0.20;0.20;;;20.50;50.80;;;;;;6104268;29;20044;-53
2023/01/02 08:23:08;;;;;;;0.20;0.20;;;20.70;50.70;;;;;;6088297;29;20055;-53
2023/01/02 08:26:09;;;;;;;;;;;20.50;50.50;;;;;;6104399;29;20040;-54
2023/01/02 08:29:11;;;;;;;;;;;20.60;50.50;;;;;;6104300;29;19923;-50
2023/01/02 08:32:13;;;;;;;1.48;0.22;;;20.90;50.60;;;;;;6104155;29;20087;-52
2023/01/02 08:35:15;;;;;;;1.88;0.13;;;20.80;50.50;;;;;;6137756;23;20047;-50
2023/01/02 08:38:16;;;;;;;;;;;20.70;50.60;;;;;;6139442;29;20050;-51
2023/01/02 08:44:52;;;;;;;0.80;0.20;;;20.70;50.40;;;;;;6090590;29;20139;-49
2023/01/02 08:47:54;;;;;;;0.20;0.20;;;20.80;50.40;;;;;;6093781;29;20049;-49
2023/01/02 08:50:56;;;;;;;0.30;0.30;;;20.80;50.30;;;;;;6083576;29;20048;-52
2023/01/02 08:54:00;;;;;;;0.52;0.30;;;20.90;50.20;;;;;;6080964;29;20081;-50
2023/01/02 08:57:03;;;;;;;0.30;0.30;;;20.90;50.10;;;;;;6080514;29;20116;-53
2023/01/02 09:00:07;;;;;;;0.30;0.30;;;21.00;50.00;;;;;;6080354;29;20040;-50
2023/01/02 09:03:09;;;;;;;0.80;0.30;;;21.00;49.90;;;;;;6079997;29;20509;-51
2023/01/02 09:06:11;;;;;;;0.30;0.30;;;21.00;49.80;;;;;;6080568;29;20051;-52
2023/01/02 09:09:19;;;;;;;0.30;0.30;;;21.10;49.80;;;;;;6082436;29;20045;-50
2023/01/02 09:12:20;;;;;;;0.35;0.30;;;21.00;49.60;;;;;;6098421;29;20060;-52
2023/01/02 09:15:21;;;;;;;0.15;0.13;;;21.00;49.60;;;;;;6094226;29;20056;-51
2023/01/02 09:18:24;;;;;;;0.20;0.20;;;21.10;49.60;;;;;;6086544;29;20049;-51
2023/01/02 09:21:30;;;;;;;0.40;0.40;;;21.00;49.50;;;;;;6094179;29;20048;-51
2023/01/02 09:24:32;;;;;;;0.22;0.20;;;21.20;49.60;;;;;;6089860;29;20417;-53
2023/01/02 09:27:34;;;;;;;;;;;21.20;49.60;;;;;;6337840;23;20025;-48
2023/01/02 09:30:36;;;;;;;0.63;0.30;;;21.30;49.50;;;;;;6195619;23;19986;-48
2023/01/02 09:33:38;;;;;;;0.40;0.40;;;21.10;49.50;;;;;;6147845;29;20067;-50
2023/01/02 09:36:40;;;;;;;0.28;0.28;;;21.20;49.50;;;;;;6125268;29;20051;-50
2023/01/02 09:39:42;;;;;;;0.20;0.20;;;21.20;49.50;;;;;;6126427;29;20052;-51
2023/01/02 09:42:44;;;;;;;;;;;21.10;49.40;;;;;;6126847;29;20414;-50
2023/01/02 09:45:46;;;;;;;;;;;21.00;49.50;;;;;;6127366;29;19930;-52
2023/01/02 09:48:49;;;;;;;0.80;0.30;;;21.10;49.60;;;;;;6125735;29;19923;-51
2023/01/02 09:51:50;;;;;;;0.43;0.40;;;21.20;49.70;;;;;;6138248;29;20051;-52
2023/01/02 09:54:53;;;;;;;0.30;0.30;;;21.20;49.60;;;;;;6232019;23;20054;-52
2023/01/02 09:58:00;;;;;;;0.47;0.38;;;21.20;49.60;;;;;;6137474;29;20043;-51
2023/01/02 10:01:04;;;;;;;0.70;0.40;;;21.00;49.40;;;;;;6135963;29;20047;-53
2023/01/02 10:04:18;;;;;;;0.40;0.30;;;21.10;49.40;;;;;;6130171;29;20050;-53
2023/01/02 10:07:27;;;;;;;0.25;0.22;;;21.30;49.40;;;;;;6140209;28;20048;-54
2023/01/02 10:10:34;;;;;;;0.50;0.30;;;21.30;49.40;;;;;;6127478;29;20047;-51
2023/01/02 10:13:42;;;;;;;0.38;0.30;;;21.30;49.30;;;;;;6132188;29;20043;-53
2023/01/02 10:17:06;;;;;;;0.40;0.30;;;21.30;49.30;;;;;;6366078;23;20056;-53
2023/01/02 10:20:17;;;;;;;0.22;0.20;;;21.40;49.30;;;;;;6110848;29;20548;-53
2023/01/02 10:23:28;;;;;;;0.25;0.20;;;21.30;49.20;;;;;;6370382;23;20047;-53
2023/01/02 10:26:34;;;;;;;1.40;0.65;;;21.30;49.10;;;;;;6134866;29;20531;-51
2023/01/02 10:29:42;;;;;;;0.40;0.40;;;21.50;49.20;;;;;;6136405;28;20156;-49
2023/01/02 10:36:26;;;;;;;0.82;0.68;;;21.30;49.00;;;;;;6203492;23;20045;-51
2023/01/02 10:39:31;;;;;;;0.80;0.55;;;21.50;49.10;;;;;;6168874;23;20051;-53
2023/01/02 10:42:33;;;;;;;1.15;0.70;;;21.50;48.90;;;;;;6315016;23;20031;-54
2023/01/02 10:45:36;;;;;;;0.60;0.50;;;21.50;48.90;;;;;;6472997;23;20056;-54
2023/01/02 10:48:38;;;;;;;0.47;0.38;;;21.60;48.80;;;;;;6609056;23;20148;-55
2023/01/02 10:51:44;;;;;;;1.88;0.30;;;21.60;48.80;;;;;;6141019;29;20048;-52
2023/01/02 10:58:21;;;;;;;0.25;0.20;;;21.60;48.70;;;;;;6294112;23;20052;-53
2023/01/02 11:01:23;;;;;;;1.02;0.35;;;21.50;48.60;;;;;;6205222;23;20499;-54
2023/01/02 11:04:26;;;;;;;0.43;0.20;;;21.60;48.60;;;;;;6134621;29;20055;-51
2023/01/02 11:07:33;;;;;;;0.63;0.35;;;21.60;48.50;;;;;;6126826;29;20047;-53
2023/01/02 11:10:36;;;;;;;0.32;0.30;;;21.60;48.40;;;;;;6116833;29;20048;-53
2023/01/02 11:13:44;;;;;;;0.30;0.20;;;21.70;48.40;;;;;;6116153;29;20062;-51
2023/01/02 11:17:03;;;;;;;0.30;0.20;;;21.70;48.20;;;;;;6172722;23;20022;-54
2023/01/02 11:23:47;;;;;;;0.20;0.20;;;21.60;47.90;;;;;;7032704;23;20082;31
2023/01/02 11:26:49;;;;;;;0.28;0.20;;;21.60;47.90;;;;;;6109063;29;20088;-55
2023/01/02 11:29:51;;;;;;;0.47;0.20;;;21.60;48.00;;;;;;6109446;29;20044;-54
2023/01/02 11:33:04;;;;;;;0.20;0.20;;;21.60;47.90;;;;;;6108089;29;20032;-53
2023/01/02 11:36:15;;;;;;;0.17;0.15;;;21.60;47.90;;;;;;6983345;23;20056;-54
2023/01/02 12:24:56;;;;;;;0.17;0.10;;;21.50;47.70;;;;;;6853848;23;20193;-56
2023/01/02 12:28:06;;;;;;;0.20;0.20;;;21.60;47.00;;;;;;6147590;29;20086;-54
2023/01/02 12:31:23;;;;;;;0.63;0.20;;;21.50;46.90;;;;;;6126420;29;20048;-57
2023/01/02 12:34:39;;;;;;;0.32;0.10;;;21.50;46.80;;;;;;6144371;29;20051;-50
2023/01/02 12:41:25;;;;;;;0.65;0.17;;;21.50;46.60;;;;;;6620318;23;20265;-54
2023/01/02 12:44:41;;;;;;;0.10;0.10;;;21.50;46.60;;;;;;6131606;29;20078;-55
2023/01/02 12:47:56;;;;;;;0.40;0.30;;;21.60;46.60;;;;;;6133288;29;20048;-52
2023/01/02 12:51:10;;;;;;;0.30;0.10;;;21.60;46.60;;;;;;6127517;29;20044;-54
2023/01/02 12:54:29;;;;;;;1.58;0.20;;;21.60;46.50;;;;;;6128450;29;20044;-50
2023/01/02 12:57:41;;;;;;;0.20;0.20;;;21.70;47.00;;;;;;6127321;29;20386;-54
2023/01/02 13:00:57;;;;;;;0.38;0.20;;;21.70;46.40;;;;;;6127576;29;20052;-54
2023/01/02 13:04:09;;;;;;;1.50;0.30;;;21.70;46.30;;;;;;6142017;28;20048;-56
2023/01/02 13:07:16;;;;;;;0.20;0.20;;;21.60;46.20;;;;;;6424504;23;20023;-54
2023/01/02 13:10:21;;;;;;;0.30;0.20;;;21.80;46.30;;;;;;6257907;23;20103;-53
2023/01/02 13:13:31;;;;;;;0.20;0.20;;;21.80;46.20;;;;;;6146034;29;20059;-53
2023/01/02 13:16:34;;;;;;;0.38;0.20;;;21.90;46.10;;;;;;6219024;23;20059;-52
2023/01/02 13:19:42;;;;;;;0.15;0.15;;;21.90;46.10;;;;;;6126605;29;20093;-51
2023/01/02 13:22:50;;;;;;;0.35;0.20;;;21.90;45.90;;;;;;6138921;29;20047;-53
2023/01/02 13:26:00;;;;;;;0.25;0.25;;;21.90;45.80;;;;;;6118764;29;20063;-54
2023/01/02 13:29:21;;;;;;;0.40;0.40;;;21.80;45.60;;;;;;6115211;29;20044;-51
2023/01/02 13:32:27;;;;;;;0.60;0.50;;;21.70;45.50;;;;;;6110415;29;20039;-54
2023/01/02 13:35:32;;;;;;;0.28;0.20;;;22.00;45.60;;;;;;6127566;29;20508;-48
2023/01/02 13:38:35;;;;;;;0.70;0.30;;;21.90;45.50;;;;;;6128225;29;20071;-52
2023/01/02 13:42:57;;;;;;;0.65;0.30;;;21.90;45.50;;;;;;6127054;29;20052;-51
2023/01/02 13:45:14;;;;;;;0.80;0.30;;;22.10;45.60;;;;;;6113480;29;20043;-49
2023/01/02 13:48:21;;;;;;;0.30;0.30;;;22.10;45.60;;;;;;6137649;29;20063;-55
2023/01/02 13:51:25;;;;;;;0.40;0.30;;;22.00;45.50;;;;;;6136048;29;20055;-53
2023/01/02 13:54:35;;;;;;;0.55;0.40;;;22.00;45.60;;;;;;6134379;29;20048;-51
2023/01/02 13:57:36;;;;;;;0.40;0.28;;;22.00;45.60;;;;;;6117423;29;20047;-56
2023/01/02 14:00:39;;;;;;;;;;;22.00;45.60;;;;;;6139872;29;20044;-53
2023/01/02 14:03:41;;;;;;;0.75;0.40;;;22.20;45.80;;;;;;6135052;29;19938;-53
2023/01/02 14:06:46;;;;;;;0.30;0.30;;;21.90;45.60;;;;;;6131694;29;20429;-55
2023/01/02 14:10:21;;;;;;;0.52;0.30;;;22.00;45.60;;;;;;6119935;29;20567;-55
2023/01/02 14:13:29;;;;;;;0.68;0.30;;;22.00;45.60;;;;;;6126066;29;20526;-52
2023/01/02 14:16:47;;;;;;;0.57;0.30;;;21.90;45.50;;;;;;6113470;28;20044;-55
2023/01/02 14:20:23;;;;;;;0.20;0.20;;;22.00;45.40;;;;;;6126640;29;20556;-52
2023/01/02 14:23:28;;;;;;;0.80;0.20;;;22.00;45.20;;;;;;6114956;28;20048;-54
2023/01/02 14:26:34;;;;;;;0.60;0.20;;;22.20;45.20;;;;;;6116811;28;20044;-54
2023/01/02 14:29:41;;;;;;;0.13;0.13;;;22.10;45.00;;;;;;6159085;23;20047;-52
2023/01/02 14:32:56;;;;;;;5.85;0.40;;;22.10;44.70;;;;;;6528066;23;20724;31
2023/01/02 14:36:02;;;;;;;0.68;0.40;;;22.20;44.50;;;;;;6336927;23;20039;-57
2023/01/02 14:39:05;;;;;;;0.52;0.30;;;22.20;44.40;;;;;;6138824;28;20071;-56
2023/01/02 14:45:44;;;;;;;1.40;0.45;;;22.10;44.30;;;;;;6182096;23;20035;-55
2023/01/02 14:48:53;;;;;;;0.20;0.20;;;22.10;44.40;;;;;;6142041;28;20054;-57
2023/01/02 14:51:59;;;;;;;0.50;0.40;;;21.80;44.30;;;;;;6132230;29;20043;-52
2023/01/02 14:55:08;;;;;;;0.20;0.20;;;22.00;44.40;;;;;;6148355;29;20047;-53
2023/01/02 14:58:18;;;;;;;0.68;0.30;;;22.00;44.40;;;;;;6125057;29;20074;-57
2023/01/02 15:01:22;;;;;;;0.30;0.20;;;21.90;44.30;;;;;;6129263;29;20048;-54
2023/01/02 15:04:50;;;;;;;0.32;0.20;;;21.70;44.20;;;;;;6108331;29;20040;-53
2023/01/02 15:07:55;;;;;;;0.63;0.30;;;22.00;44.40;;;;;;6139186;29;20051;-44
2023/01/02 15:14:38;;;;;;;1.48;0.35;;;22.00;44.30;;;;;;6940672;23;20734;-47
2023/01/02 15:17:41;;;;;;;0.25;0.15;;;22.00;44.30;;;;;;6471302;23;20301;-52
2023/01/02 15:20:49;;;;;;;0.45;0.30;;;22.10;45.00;;;;;;6670222;23;20047;-54
2023/01/02 15:23:52;;;;;;;0.65;0.30;;;22.10;44.30;;;;;;6754874;23;20676;-52
2023/01/02 15:27:11;;;;;;;0.30;0.30;;;22.20;44.20;;;;;;6810533;23;20105;31
2023/01/02 15:40:41;;;;;;;0.22;0.17;;;22.20;44.10;;;;;;6857960;23;20478;-52
2023/01/02 15:46:58;;;;;;;0.20;0.15;;;22.30;44.10;;;;;;6146663;29;20047;-51
2023/01/02 15:50:00;;;;;;;0.52;0.20;;;22.30;44.10;;;;;;6137769;29;20124;-51
2023/01/02 15:53:07;;;;;;;0.28;0.20;;;22.20;44.10;;;;;;6146931;28;20051;-50
2023/01/02 15:56:30;;;;;;;0.22;0.22;;;22.30;44.10;;;;;;6153241;29;20044;-50
2023/01/02 16:20:32;;;;;;;0.20;0.20;;;22.30;44.00;;;;;;7097671;23;20027;-53
2023/01/02 16:23:53;;;;;;;0.40;0.20;;;22.40;44.10;;;;;;6800153;23;20040;-53
2023/01/02 16:26:55;;;;;;;0.32;0.13;;;22.20;44.00;;;;;;6117153;29;20051;-52
2023/01/02 16:29:57;;;;;;;0.30;0.20;;;22.30;44.00;;;;;;6139503;28;20055;-51
2023/01/02 16:40:43;;;;;;;0.50;0.20;;;22.30;44.00;;;;;;7123996;23;20057;31
2023/01/02 16:47:42;;;;;;;0.80;0.17;;;22.30;43.90;;;;;;6998468;23;20538;-49
2023/01/02 16:50:45;;;;;;;0.82;0.20;;;22.30;43.90;;;;;;6082898;29;20045;-51
2023/01/02 16:53:47;;;;;;;0.40;0.20;;;22.30;43.90;;;;;;6068697;29;20059;-52
2023/01/02 16:56:48;;;;;;;;;;;22.30;44.00;;;;;;6093029;29;20049;-51
2023/01/02 16:59:50;;;;;;;;;;;22.30;44.00;;;;;;6091796;29;20380;-53
2023/01/02 17:02:52;;;;;;;1.35;0.20;;;22.20;44.10;;;;;;6091878;29;19946;-52
2023/01/02 17:05:55;;;;;;;0.40;0.20;;;22.20;44.20;;;;;;6082872;29;20072;-51
2023/01/02 17:09:04;;;;;;;0.20;0.20;;;22.10;44.10;;;;;;6069523;29;20096;-53
2023/01/02 17:12:05;;;;;;;;;;;22.00;44.00;;;;;;6096102;29;20052;-53
2023/01/02 17:15:10;;;;;;;0.20;0.15;;;21.90;44.10;;;;;;6087581;29;19979;-53
2023/01/02 17:18:12;;;;;;;0.10;0.10;;;22.00;44.20;;;;;;6080957;29;20104;-53
2023/01/02 17:21:14;;;;;;;0.50;0.38;;;22.00;44.10;;;;;;6087985;29;20060;-53
2023/01/02 17:24:16;;;;;;;0.88;0.22;;;21.90;44.10;;;;;;6081500;29;20044;-51
2023/01/02 17:27:17;;;;;;;0.20;0.20;;;22.00;44.10;;;;;;6064035;29;20044;-51
2023/01/02 17:30:19;;;;;;;;;;;21.90;44.10;;;;;;6092442;29;20040;-53
2023/01/02 17:33:21;;;;;;;0.10;0.10;;;21.80;44.00;;;;;;6087575;29;19927;-53
2023/01/02 17:36:23;;;;;;;0.20;0.20;;;21.90;44.20;;;;;;6064165;29;20051;-52
2023/01/02 17:39:25;;;;;;;;;;;21.80;44.00;;;;;;6080570;29;20052;-53
2023/01/02 17:42:26;;;;;;;0.85;0.40;;;21.90;44.10;;;;;;6065063;29;19923;-53
2023/01/02 17:45:27;;;;;;;;;;;21.90;44.20;;;;;;6089783;29;20413;-53
2023/01/02 17:48:30;;;;;;;0.55;0.20;;;21.70;44.10;;;;;;6065847;29;20377;-50
2023/01/02 17:51:32;;;;;;;0.57;0.30;;;21.80;44.20;;;;;;6083349;29;20121;-53
2023/01/02 17:54:33;;;;;;;0.32;0.30;;;21.80;44.10;;;;;;6089195;29;20073;-52
2023/01/02 17:57:35;;;;;;;;;;;21.70;43.90;;;;;;6090112;29;20105;-51
2023/01/02 18:00:36;;;;;;;0.52;0.30;;;21.70;44.00;;;;;;6096763;29;20356;-49
2023/01/02 18:03:38;;;;;;;0.50;0.30;;;21.60;44.00;;;;;;6091952;29;20096;-50
2023/01/02 18:06:40;;;;;;;1.08;0.35;;;21.50;43.90;;;;;;6087006;29;20052;-50
2023/01/02 18:09:41;;;;;;;0.38;0.30;;;21.70;44.00;;;;;;6087759;29;20052;-51
2023/01/02 18:13:05;;;;;;;0.60;0.30;;;21.70;44.00;;;;;;6073172;29;20044;-51
2023/01/02 18:16:13;;;;;;;0.32;0.20;;;21.60;43.90;;;;;;6090851;29;20410;-53
2023/01/02 18:19:16;;;;;;;0.50;0.30;;;21.70;43.90;;;;;;6096985;29;20429;-50
2023/01/02 18:22:22;;;;;;;0.47;0.30;;;21.60;43.90;;;;;;6082999;29;20044;-51
2023/01/02 18:25:28;;;;;;;0.40;0.20;;;21.60;44.00;;;;;;6082797;29;20060;-51